createdAt,value
2019-03-17T00:00:49.254Z,11.65
2019-03-17T00:01:57.161Z,11.74
2019-03-17T00:02:49.254Z,11.59
2019-03-17T00:03:49.263Z,11.60
2019-03-17T00:04:50.171Z,11.70
2019-03-17T00:05:49.153Z,11.70
2019-03-17T00:06:49.149Z,11.73
2019-03-17T00:07:49.188Z,11.74
2019-03-17T00:08:49.114Z,11.81
2019-03-17T00:09:49.107Z,11.73
2019-03-17T00:10:49.023Z,11.73
2019-03-17T00:11:48.998Z,11.70
2019-03-17T00:12:48.977Z,11.74
2019-03-17T00:13:48.954Z,11.74
2019-03-17T00:14:48.928Z,11.73
2019-03-17T00:15:48.909Z,11.76
2019-03-17T00:16:48.897Z,11.73
2019-03-17T00:17:48.858Z,11.76
2019-03-17T00:18:48.834Z,11.81
2019-03-17T00:19:48.812Z,11.74
2019-03-17T00:20:48.790Z,11.77
2019-03-17T00:21:48.770Z,11.81
2019-03-17T00:22:48.742Z,11.76
2019-03-17T00:23:48.728Z,11.73
2019-03-17T00:24:48.700Z,11.78
2019-03-17T00:25:48.673Z,11.81
2019-03-17T00:26:48.662Z,11.83
2019-03-17T00:27:49.147Z,11.83
2019-03-17T00:28:48.605Z,11.77
2019-03-17T00:29:48.613Z,11.71
2019-03-17T00:30:48.558Z,11.80
2019-03-17T00:31:48.535Z,11.80
2019-03-17T00:32:48.513Z,11.76
2019-03-17T00:33:48.695Z,11.76
2019-03-17T00:34:50.801Z,11.74
2019-03-17T00:35:48.443Z,11.77
2019-03-17T00:36:48.418Z,11.81
2019-03-17T00:37:48.394Z,11.77
2019-03-17T00:38:49.202Z,11.68
2019-03-17T00:39:49.042Z,11.78
2019-03-17T00:40:48.335Z,11.74
2019-03-17T00:41:48.307Z,11.78
2019-03-17T00:42:48.280Z,11.71
2019-03-17T00:43:48.306Z,11.70
2019-03-17T00:44:48.259Z,11.81
2019-03-17T00:45:48.269Z,11.80
2019-03-17T00:46:48.224Z,11.80
2019-03-17T00:47:48.224Z,11.80
2019-03-17T00:48:48.182Z,11.76
2019-03-17T00:49:48.172Z,11.80
2019-03-17T00:50:49.111Z,11.76
2019-03-17T00:51:48.072Z,11.81
2019-03-17T00:52:48.144Z,11.80
2019-03-17T00:53:48.080Z,11.81
2019-03-17T00:54:48.059Z,11.73
2019-03-17T00:55:47.998Z,11.83
2019-03-17T00:56:47.956Z,11.78
2019-03-17T00:57:47.966Z,11.86
2019-03-17T00:58:47.911Z,11.78
2019-03-17T00:59:47.945Z,11.71
2019-03-17T01:00:47.865Z,11.83
2019-03-17T01:01:47.841Z,11.71
2019-03-17T01:02:47.873Z,11.81
2019-03-17T01:03:47.796Z,11.89
2019-03-17T01:04:56.081Z,11.88
2019-03-17T01:05:47.751Z,11.83
2019-03-17T01:06:47.730Z,11.81
2019-03-17T01:07:47.706Z,11.83
2019-03-17T01:08:47.701Z,11.74
2019-03-17T01:09:47.701Z,11.76
2019-03-17T01:10:47.689Z,11.77
2019-03-17T01:11:47.647Z,11.73
2019-03-17T01:12:47.654Z,11.74
2019-03-17T01:13:47.588Z,11.74
2019-03-17T01:14:47.564Z,11.74
2019-03-17T01:15:47.523Z,11.85
2019-03-17T01:16:47.509Z,11.80
2019-03-17T01:17:47.471Z,11.74
2019-03-17T01:18:47.452Z,11.74
2019-03-17T01:19:47.488Z,11.63
2019-03-17T01:20:47.495Z,11.67
2019-03-17T01:21:47.387Z,11.67
2019-03-17T01:22:47.411Z,11.60
2019-03-17T01:23:47.377Z,11.60
2019-03-17T01:24:47.311Z,11.58
2019-03-17T01:25:47.358Z,11.58
2019-03-17T01:26:47.264Z,11.56
2019-03-17T01:27:47.240Z,11.52
2019-03-17T01:28:47.255Z,11.49
2019-03-17T01:29:47.195Z,11.51
2019-03-17T01:30:47.241Z,11.48
2019-03-17T01:31:47.154Z,11.45
2019-03-17T01:32:47.125Z,11.55
2019-03-17T01:33:47.106Z,11.52
2019-03-17T01:34:47.859Z,11.48
2019-03-17T01:35:49.701Z,11.49
2019-03-17T01:36:47.093Z,11.52
2019-03-17T01:37:47.012Z,11.45
2019-03-17T01:38:46.992Z,11.53
2019-03-17T01:39:46.969Z,11.49
2019-03-17T01:40:46.941Z,11.48
2019-03-17T01:41:46.916Z,11.52
2019-03-17T01:42:46.954Z,11.51
2019-03-17T01:43:46.875Z,11.44
2019-03-17T01:44:46.848Z,11.52
2019-03-17T01:45:46.820Z,11.48
2019-03-17T01:46:46.800Z,11.45
2019-03-17T01:47:46.824Z,11.49
2019-03-17T01:48:46.791Z,11.44
2019-03-17T01:49:46.729Z,11.48
2019-03-17T01:50:46.708Z,11.51
2019-03-17T01:51:46.682Z,11.55
2019-03-17T01:52:46.659Z,11.68
2019-03-17T01:53:46.638Z,11.67
2019-03-17T01:54:46.620Z,11.71
2019-03-17T01:55:46.591Z,11.74
2019-03-17T01:56:46.563Z,11.77
2019-03-17T01:57:46.542Z,11.76
2019-03-17T01:58:46.528Z,11.77
2019-03-17T01:59:46.498Z,11.73
2019-03-17T02:00:46.474Z,11.80
2019-03-17T02:01:46.449Z,11.85
2019-03-17T02:02:46.424Z,11.71
2019-03-17T02:03:46.405Z,11.81
2019-03-17T02:04:46.385Z,11.76
2019-03-17T02:05:46.356Z,11.76
2019-03-17T02:06:46.338Z,11.77
2019-03-17T02:07:46.309Z,11.77
2019-03-17T02:08:46.285Z,11.80
2019-03-17T02:09:46.264Z,11.80
2019-03-17T02:10:46.292Z,11.81
2019-03-17T02:11:46.219Z,11.74
2019-03-17T02:12:46.190Z,11.73
2019-03-17T02:13:46.170Z,11.71
2019-03-17T02:14:46.143Z,11.71
2019-03-17T02:15:46.128Z,11.73
2019-03-17T02:16:46.100Z,11.73
2019-03-17T02:17:46.075Z,11.70
2019-03-17T02:18:46.054Z,11.70
2019-03-17T02:19:46.027Z,11.70
2019-03-17T02:20:46.008Z,11.74
2019-03-17T02:21:45.983Z,11.70
2019-03-17T02:22:45.967Z,11.68
2019-03-17T02:23:45.934Z,11.71
2019-03-17T02:24:45.913Z,11.67
2019-03-17T02:25:45.895Z,11.68
2019-03-17T02:26:45.866Z,11.70
2019-03-17T02:27:45.841Z,11.67
2019-03-17T02:28:45.851Z,11.76
2019-03-17T02:29:45.793Z,11.76
2019-03-17T02:30:45.821Z,11.71
2019-03-17T02:31:45.753Z,11.70
2019-03-17T02:32:45.728Z,11.67
2019-03-17T02:33:45.713Z,11.73
2019-03-17T02:34:45.681Z,11.71
2019-03-17T02:35:45.678Z,11.63
2019-03-17T02:36:45.641Z,11.67
2019-03-17T02:37:45.644Z,11.63
2019-03-17T02:38:45.594Z,11.68
2019-03-17T02:39:45.564Z,11.65
2019-03-17T02:40:45.545Z,11.55
2019-03-17T02:41:45.521Z,11.55
2019-03-17T02:42:45.495Z,11.60
2019-03-17T02:43:45.473Z,11.56
2019-03-17T02:44:45.448Z,11.59
2019-03-17T02:45:45.425Z,11.58
2019-03-17T02:46:45.400Z,11.59
2019-03-17T02:47:45.383Z,11.59
2019-03-17T02:48:45.355Z,11.59
2019-03-17T02:49:45.336Z,11.53
2019-03-17T02:50:45.309Z,11.56
2019-03-17T02:51:45.291Z,11.55
2019-03-17T02:52:45.260Z,11.56
2019-03-17T02:53:45.242Z,11.43
2019-03-17T02:54:45.215Z,11.43
2019-03-17T02:55:45.191Z,11.45
2019-03-17T02:56:45.167Z,11.53
2019-03-17T02:57:45.170Z,11.45
2019-03-17T02:58:45.122Z,11.48
2019-03-17T02:59:45.100Z,11.49
2019-03-17T03:00:45.081Z,11.45
2019-03-17T03:01:45.051Z,11.45
2019-03-17T03:02:45.035Z,11.48
2019-03-17T03:03:45.009Z,11.44
2019-03-17T03:04:44.980Z,11.52
2019-03-17T03:05:54.945Z,11.43
2019-03-17T03:06:44.938Z,11.49
2019-03-17T03:07:44.918Z,11.52
2019-03-17T03:08:44.888Z,11.49
2019-03-17T03:09:44.869Z,11.51
2019-03-17T03:10:44.846Z,11.48
2019-03-17T03:11:44.821Z,11.52
2019-03-17T03:12:44.793Z,11.48
2019-03-17T03:13:44.774Z,11.53
2019-03-17T03:14:44.749Z,11.45
2019-03-17T03:15:44.730Z,11.49
2019-03-17T03:16:44.703Z,11.52
2019-03-17T03:17:44.684Z,11.48
2019-03-17T03:18:44.655Z,11.59
2019-03-17T03:19:44.639Z,11.52
2019-03-17T03:20:44.608Z,11.51
2019-03-17T03:21:44.586Z,11.58
2019-03-17T03:22:44.567Z,11.51
2019-03-17T03:23:44.555Z,11.55
2019-03-17T03:24:44.592Z,11.55
2019-03-17T03:25:44.490Z,11.52
2019-03-17T03:26:44.466Z,11.51
2019-03-17T03:27:44.449Z,11.56
2019-03-17T03:28:44.419Z,11.56
2019-03-17T03:29:44.400Z,11.51
2019-03-17T03:30:44.375Z,11.53
2019-03-17T03:31:44.449Z,11.51
2019-03-17T03:32:44.329Z,11.52
2019-03-17T03:33:44.303Z,11.58
2019-03-17T03:34:44.288Z,11.40
2019-03-17T03:35:44.284Z,11.48
2019-03-17T03:36:45.171Z,11.40
2019-03-17T03:37:44.214Z,11.40
2019-03-17T03:38:44.243Z,11.38
2019-03-17T03:39:44.166Z,11.41
2019-03-17T03:40:44.138Z,11.44
2019-03-17T03:41:44.117Z,11.44
2019-03-17T03:42:44.094Z,11.49
2019-03-17T03:43:44.070Z,11.48
2019-03-17T03:44:44.060Z,11.59
2019-03-17T03:45:44.028Z,11.53
2019-03-17T03:46:44.017Z,11.52
2019-03-17T03:47:43.975Z,11.48
2019-03-17T03:48:43.965Z,11.44
2019-03-17T03:49:43.959Z,11.40
2019-03-17T03:50:43.914Z,11.44
2019-03-17T03:51:43.882Z,11.48
2019-03-17T03:52:43.859Z,11.37
2019-03-17T03:53:43.841Z,11.34
2019-03-17T03:54:43.814Z,11.27
2019-03-17T03:55:43.789Z,11.31
2019-03-17T03:56:43.771Z,11.22
2019-03-17T03:57:43.744Z,11.23
2019-03-17T03:58:43.721Z,11.30
2019-03-17T03:59:43.697Z,11.26
2019-03-17T04:00:43.684Z,11.31
2019-03-17T04:01:43.646Z,11.27
2019-03-17T04:02:43.630Z,11.35
2019-03-17T04:03:43.607Z,11.26
2019-03-17T04:04:43.577Z,11.26
2019-03-17T04:05:43.549Z,11.22
2019-03-17T04:06:43.530Z,11.27
2019-03-17T04:07:43.537Z,11.23
2019-03-17T04:08:43.489Z,11.34
2019-03-17T04:09:43.463Z,11.22
2019-03-17T04:10:43.434Z,11.27
2019-03-17T04:11:43.414Z,11.19
2019-03-17T04:12:43.392Z,11.25
2019-03-17T04:13:43.365Z,11.30
2019-03-17T04:14:43.341Z,11.23
2019-03-17T04:15:43.317Z,11.23
2019-03-17T04:16:43.298Z,11.20
2019-03-17T04:17:43.276Z,11.20
2019-03-17T04:18:43.247Z,11.25
2019-03-17T04:19:43.221Z,11.23
2019-03-17T04:20:43.204Z,11.22
2019-03-17T04:21:43.195Z,11.18
2019-03-17T04:22:43.171Z,11.23
2019-03-17T04:23:43.127Z,11.16
2019-03-17T04:24:43.107Z,11.16
2019-03-17T04:25:43.089Z,11.23
2019-03-17T04:26:43.059Z,11.19
2019-03-17T04:27:43.035Z,11.20
2019-03-17T04:28:43.010Z,11.20
2019-03-17T04:29:42.993Z,11.15
2019-03-17T04:30:42.966Z,11.13
2019-03-17T04:31:42.945Z,11.12
2019-03-17T04:32:42.915Z,11.15
2019-03-17T04:33:42.891Z,11.04
2019-03-17T04:34:42.869Z,11.08
2019-03-17T04:35:45.703Z,11.07
2019-03-17T04:36:42.824Z,11.07
2019-03-17T04:37:43.539Z,11.05
2019-03-17T04:38:43.965Z,11.00
2019-03-17T04:39:42.753Z,10.98
2019-03-17T04:40:42.727Z,10.86
2019-03-17T04:41:42.707Z,10.84
2019-03-17T04:42:42.683Z,10.84
2019-03-17T04:43:42.654Z,10.77
2019-03-17T04:44:42.643Z,10.79
2019-03-17T04:45:42.610Z,10.80
2019-03-17T04:46:42.583Z,10.72
2019-03-17T04:47:42.568Z,10.80
2019-03-17T04:48:42.574Z,10.71
2019-03-17T04:49:42.513Z,10.77
2019-03-17T04:50:42.488Z,10.71
2019-03-17T04:51:42.468Z,10.76
2019-03-17T04:52:42.441Z,10.59
2019-03-17T04:53:42.423Z,10.64
2019-03-17T04:54:42.404Z,10.59
2019-03-17T04:55:42.374Z,10.59
2019-03-17T04:56:42.345Z,10.64
2019-03-17T04:57:42.331Z,10.58
2019-03-17T04:58:42.299Z,10.43
2019-03-17T04:59:42.276Z,10.49
2019-03-17T05:00:42.272Z,10.55
2019-03-17T05:01:42.229Z,10.55
2019-03-17T05:02:42.218Z,10.43
2019-03-17T05:03:42.179Z,10.33
2019-03-17T05:04:42.159Z,10.31
2019-03-17T05:05:42.134Z,10.36
2019-03-17T05:06:52.031Z,10.34
2019-03-17T05:07:42.086Z,10.39
2019-03-17T05:08:42.058Z,10.27
2019-03-17T05:09:42.032Z,10.27
2019-03-17T05:10:42.012Z,10.25
2019-03-17T05:11:41.987Z,10.21
2019-03-17T05:12:41.964Z,10.23
2019-03-17T05:13:41.937Z,10.17
2019-03-17T05:14:41.917Z,10.13
2019-03-17T05:15:41.893Z,10.06
2019-03-17T05:16:41.865Z,10.06
2019-03-17T05:17:41.839Z,10.00
2019-03-17T05:18:41.819Z,10.07
2019-03-17T05:19:41.792Z,9.99
2019-03-17T05:20:41.770Z,9.92
2019-03-17T05:21:41.742Z,9.91
2019-03-17T05:22:41.723Z,9.92
2019-03-17T05:23:41.703Z,9.87
2019-03-17T05:24:41.673Z,9.82
2019-03-17T05:25:41.647Z,9.77
2019-03-17T05:26:41.623Z,9.81
2019-03-17T05:27:41.601Z,9.77
2019-03-17T05:28:41.578Z,9.67
2019-03-17T05:29:41.550Z,9.74
2019-03-17T05:30:41.527Z,9.74
2019-03-17T05:31:41.501Z,9.59
2019-03-17T05:32:41.481Z,9.63
2019-03-17T05:33:41.455Z,9.67
2019-03-17T05:34:41.431Z,9.64
2019-03-17T05:35:41.403Z,9.67
2019-03-17T05:36:41.380Z,9.70
2019-03-17T05:37:41.359Z,9.66
2019-03-17T05:38:41.929Z,9.66
2019-03-17T05:39:41.310Z,9.67
2019-03-17T05:40:41.287Z,9.63
2019-03-17T05:41:41.260Z,9.66
2019-03-17T05:42:41.331Z,9.63
2019-03-17T05:43:41.223Z,9.58
2019-03-17T05:44:41.194Z,9.63
2019-03-17T05:45:41.160Z,9.52
2019-03-17T05:46:41.137Z,9.64
2019-03-17T05:47:41.118Z,9.56
2019-03-17T05:48:41.091Z,9.52
2019-03-17T05:49:41.063Z,9.51
2019-03-17T05:50:41.038Z,9.52
2019-03-17T05:51:41.017Z,9.49
2019-03-17T05:52:40.988Z,9.51
2019-03-17T05:53:40.965Z,9.55
2019-03-17T05:54:40.941Z,9.51
2019-03-17T05:55:40.935Z,9.63
2019-03-17T05:56:40.905Z,9.63
2019-03-17T05:57:40.871Z,9.54
2019-03-17T05:58:40.858Z,9.52
2019-03-17T05:59:40.822Z,9.52
2019-03-17T06:00:40.799Z,9.49
2019-03-17T06:01:40.772Z,9.52
2019-03-17T06:02:40.745Z,9.48
2019-03-17T06:03:40.720Z,9.55
2019-03-17T06:04:40.699Z,9.44
2019-03-17T06:05:40.670Z,9.42
2019-03-17T06:06:40.655Z,9.52
2019-03-17T06:07:40.625Z,9.49
2019-03-17T06:08:43.246Z,9.49
2019-03-17T06:09:40.574Z,9.48
2019-03-17T06:10:40.548Z,9.51
2019-03-17T06:11:40.524Z,9.52
2019-03-17T06:12:40.505Z,9.44
2019-03-17T06:13:40.482Z,9.48
2019-03-17T06:14:40.452Z,9.52
2019-03-17T06:15:40.425Z,9.52
2019-03-17T06:16:40.399Z,9.49
2019-03-17T06:17:40.381Z,9.45
2019-03-17T06:18:40.350Z,9.45
2019-03-17T06:19:40.326Z,9.39
2019-03-17T06:20:40.304Z,9.54
2019-03-17T06:21:40.278Z,9.44
2019-03-17T06:22:40.253Z,9.51
2019-03-17T06:23:40.241Z,9.54
2019-03-17T06:24:40.201Z,9.49
2019-03-17T06:25:40.177Z,9.51
2019-03-17T06:26:40.202Z,9.47
2019-03-17T06:27:40.131Z,9.48
2019-03-17T06:28:40.105Z,9.48
2019-03-17T06:29:40.079Z,9.40
2019-03-17T06:30:40.061Z,9.45
2019-03-17T06:31:40.030Z,9.44
2019-03-17T06:32:40.005Z,9.40
2019-03-17T06:33:39.981Z,9.39
2019-03-17T06:34:39.957Z,9.39
2019-03-17T06:35:40.031Z,9.44
2019-03-17T06:36:42.738Z,9.40
2019-03-17T06:37:39.881Z,9.33
2019-03-17T06:38:40.861Z,9.39
2019-03-17T06:39:40.228Z,9.40
2019-03-17T06:40:39.803Z,9.45
2019-03-17T06:41:39.780Z,9.45
2019-03-17T06:42:39.756Z,9.40
2019-03-17T06:43:39.731Z,9.39
2019-03-17T06:44:39.707Z,9.42
2019-03-17T06:45:39.681Z,9.31
2019-03-17T06:46:39.663Z,9.42
2019-03-17T06:47:39.631Z,9.36
2019-03-17T06:48:39.606Z,9.37
2019-03-17T06:49:39.585Z,9.36
2019-03-17T06:50:39.557Z,9.36
2019-03-17T06:51:39.532Z,9.34
2019-03-17T06:52:39.506Z,9.37
2019-03-17T06:53:39.522Z,9.34
2019-03-17T06:54:39.461Z,9.40
2019-03-17T06:55:39.434Z,9.40
2019-03-17T06:56:39.417Z,9.36
2019-03-17T06:57:39.381Z,9.37
2019-03-17T06:58:39.360Z,9.33
2019-03-17T06:59:39.342Z,9.34
2019-03-17T07:00:39.310Z,9.37
2019-03-17T07:01:39.286Z,9.42
2019-03-17T07:02:39.257Z,9.34
2019-03-17T07:03:39.233Z,9.36
2019-03-17T07:04:39.210Z,9.36
2019-03-17T07:05:39.183Z,9.34
2019-03-17T07:06:39.163Z,9.42
2019-03-17T07:07:44.237Z,9.39
2019-03-17T07:08:39.108Z,9.33
2019-03-17T07:09:39.115Z,9.39
2019-03-17T07:10:39.059Z,9.40
2019-03-17T07:11:39.034Z,9.39
2019-03-17T07:12:39.010Z,9.34
2019-03-17T07:13:38.991Z,9.30
2019-03-17T07:14:38.961Z,9.33
2019-03-17T07:15:38.941Z,9.19
2019-03-17T07:16:38.908Z,9.21
2019-03-17T07:17:38.893Z,9.26
2019-03-17T07:18:38.865Z,9.21
2019-03-17T07:19:38.842Z,9.21
2019-03-17T07:20:38.815Z,9.16
2019-03-17T07:21:38.783Z,9.08
2019-03-17T07:22:38.759Z,9.05
2019-03-17T07:23:38.735Z,9.08
2019-03-17T07:24:38.723Z,9.05
2019-03-17T07:25:38.682Z,8.93
2019-03-17T07:26:38.660Z,8.95
2019-03-17T07:27:38.637Z,8.92
2019-03-17T07:28:38.606Z,8.74
2019-03-17T07:29:38.599Z,8.64
2019-03-17T07:30:38.560Z,8.61
2019-03-17T07:31:38.542Z,8.45
2019-03-17T07:32:38.508Z,8.44
2019-03-17T07:33:38.485Z,8.34
2019-03-17T07:34:38.462Z,8.27
2019-03-17T07:35:38.433Z,8.20
2019-03-17T07:36:38.408Z,8.13
2019-03-17T07:37:38.410Z,8.18
2019-03-17T07:38:38.358Z,8.11
2019-03-17T07:39:38.332Z,8.21
2019-03-17T07:40:38.307Z,8.05
2019-03-17T07:41:38.288Z,8.09
2019-03-17T07:42:38.259Z,8.03
2019-03-17T07:43:38.233Z,8.01
2019-03-17T07:44:38.211Z,7.95
2019-03-17T07:45:38.184Z,7.93
2019-03-17T07:46:38.161Z,7.83
2019-03-17T07:47:38.164Z,7.84
2019-03-17T07:48:38.114Z,7.83
2019-03-17T07:49:38.086Z,7.81
2019-03-17T07:50:38.062Z,7.87
2019-03-17T07:51:38.038Z,7.78
2019-03-17T07:52:38.012Z,7.78
2019-03-17T07:53:37.984Z,7.75
2019-03-17T07:54:37.967Z,7.72
2019-03-17T07:55:37.936Z,7.81
2019-03-17T07:56:37.916Z,7.80
2019-03-17T07:57:37.888Z,7.81
2019-03-17T07:58:37.858Z,7.85
2019-03-17T07:59:37.841Z,7.85
2019-03-17T08:00:37.810Z,7.80
2019-03-17T08:01:37.788Z,7.74
2019-03-17T08:02:37.761Z,7.74
2019-03-17T08:03:37.739Z,7.78
2019-03-17T08:04:42.416Z,7.78
2019-03-17T08:05:37.691Z,7.77
2019-03-17T08:06:37.662Z,7.77
2019-03-17T08:07:37.638Z,7.67
2019-03-17T08:08:37.716Z,7.66
2019-03-17T08:09:37.588Z,7.78
2019-03-17T08:10:37.562Z,7.67
2019-03-17T08:11:37.541Z,7.74
2019-03-17T08:12:37.530Z,7.70
2019-03-17T08:13:37.486Z,7.69
2019-03-17T08:14:37.460Z,7.74
2019-03-17T08:15:37.445Z,7.78
2019-03-17T08:16:37.415Z,7.75
2019-03-17T08:17:37.393Z,7.83
2019-03-17T08:18:37.360Z,7.81
2019-03-17T08:19:37.339Z,7.88
2019-03-17T08:20:37.318Z,7.87
2019-03-17T08:21:37.286Z,7.90
2019-03-17T08:22:37.267Z,7.81
2019-03-17T08:23:37.262Z,7.75
2019-03-17T08:24:37.214Z,7.69
2019-03-17T08:25:37.201Z,7.67
2019-03-17T08:26:37.232Z,7.78
2019-03-17T08:27:37.172Z,7.81
2019-03-17T08:28:37.113Z,7.80
2019-03-17T08:29:37.133Z,7.77
2019-03-17T08:30:37.063Z,7.72
2019-03-17T08:31:37.036Z,7.81
2019-03-17T08:32:37.024Z,7.69
2019-03-17T08:33:36.985Z,7.69
2019-03-17T08:34:37.023Z,7.74
2019-03-17T08:35:36.941Z,7.77
2019-03-17T08:36:37.848Z,7.74
2019-03-17T08:37:36.963Z,7.75
2019-03-17T08:38:36.908Z,7.77
2019-03-17T08:39:36.857Z,7.83
2019-03-17T08:40:36.855Z,7.88
2019-03-17T08:41:37.780Z,7.90
2019-03-17T08:42:36.764Z,8.06
2019-03-17T08:43:36.750Z,8.05
2019-03-17T08:44:36.710Z,8.23
2019-03-17T08:45:36.686Z,8.23
2019-03-17T08:46:36.665Z,8.24
2019-03-17T08:47:36.639Z,8.35
2019-03-17T08:48:36.613Z,8.42
2019-03-17T08:49:36.585Z,8.39
2019-03-17T08:50:36.561Z,8.31
2019-03-17T08:51:36.751Z,8.34
2019-03-17T08:52:36.545Z,8.36
2019-03-17T08:53:36.497Z,8.34
2019-03-17T08:54:36.461Z,8.31
2019-03-17T08:55:36.458Z,8.38
2019-03-17T08:56:36.430Z,8.36
2019-03-17T08:57:36.432Z,8.38
2019-03-17T08:58:36.365Z,8.44
2019-03-17T08:59:36.456Z,8.42
2019-03-17T09:00:36.326Z,8.42
2019-03-17T09:01:36.292Z,8.39
2019-03-17T09:02:37.231Z,8.27
2019-03-17T09:03:36.239Z,8.38
2019-03-17T09:04:36.215Z,8.46
2019-03-17T09:05:36.226Z,8.32
2019-03-17T09:06:36.164Z,8.38
2019-03-17T09:07:36.138Z,8.24
2019-03-17T09:08:36.123Z,8.27
2019-03-17T09:09:36.125Z,8.17
2019-03-17T09:10:37.772Z,8.17
2019-03-17T09:11:36.053Z,8.26
2019-03-17T09:12:36.058Z,8.16
2019-03-17T09:13:35.987Z,8.24
2019-03-17T09:14:36.003Z,8.31
2019-03-17T09:15:35.940Z,8.41
2019-03-17T09:16:35.924Z,8.35
2019-03-17T09:17:35.897Z,8.32
2019-03-17T09:18:35.866Z,8.34
2019-03-17T09:19:35.844Z,8.39
2019-03-17T09:20:35.846Z,8.39
2019-03-17T09:21:35.810Z,8.44
2019-03-17T09:22:35.770Z,8.36
2019-03-17T09:23:36.329Z,8.36
2019-03-17T09:24:35.712Z,8.42
2019-03-17T09:25:35.714Z,8.42
2019-03-17T09:26:35.662Z,8.44
2019-03-17T09:27:35.652Z,8.45
2019-03-17T09:28:35.611Z,8.50
2019-03-17T09:29:36.420Z,8.50
2019-03-17T09:30:35.560Z,8.44
2019-03-17T09:31:35.537Z,8.56
2019-03-17T09:32:35.513Z,8.39
2019-03-17T09:33:35.486Z,8.44
2019-03-17T09:34:35.473Z,8.52
2019-03-17T09:35:35.596Z,8.50
2019-03-17T09:36:35.413Z,8.53
2019-03-17T09:37:35.445Z,8.66
2019-03-17T09:38:46.805Z,8.64
2019-03-17T09:39:35.345Z,8.72
2019-03-17T09:40:35.344Z,8.72
2019-03-17T09:41:35.297Z,8.66
2019-03-17T09:42:35.268Z,8.79
2019-03-17T09:43:35.241Z,8.75
2019-03-17T09:44:35.404Z,8.69
2019-03-17T09:45:35.187Z,8.71
2019-03-17T09:46:35.162Z,8.64
2019-03-17T09:47:35.139Z,8.68
2019-03-17T09:48:35.120Z,8.69
2019-03-17T09:49:35.117Z,8.69
2019-03-17T09:50:35.068Z,8.77
2019-03-17T09:51:35.045Z,8.86
2019-03-17T09:52:35.016Z,8.72
2019-03-17T09:53:35.015Z,8.69
2019-03-17T09:54:34.964Z,8.87
2019-03-17T09:55:34.948Z,8.75
2019-03-17T09:56:34.916Z,8.75
2019-03-17T09:57:34.892Z,8.78
2019-03-17T09:58:34.871Z,8.77
2019-03-17T09:59:34.841Z,8.78
2019-03-17T10:00:34.819Z,8.78
2019-03-17T10:01:34.790Z,8.78
2019-03-17T10:02:34.768Z,8.90
2019-03-17T10:03:34.744Z,8.93
2019-03-17T10:04:34.716Z,8.95
2019-03-17T10:05:34.692Z,9.03
2019-03-17T10:06:34.664Z,9.11
2019-03-17T10:07:34.646Z,9.16
2019-03-17T10:08:34.618Z,9.12
2019-03-17T10:09:34.614Z,9.19
2019-03-17T10:10:34.565Z,9.15
2019-03-17T10:11:34.556Z,9.16
2019-03-17T10:12:34.517Z,9.24
2019-03-17T10:13:34.492Z,9.13
2019-03-17T10:14:34.469Z,9.09
2019-03-17T10:15:34.451Z,9.02
2019-03-17T10:16:34.419Z,9.09
2019-03-17T10:17:34.396Z,9.12
2019-03-17T10:18:34.379Z,9.19
2019-03-17T10:19:34.344Z,9.09
2019-03-17T10:20:34.330Z,9.15
2019-03-17T10:21:34.356Z,9.21
2019-03-17T10:22:34.303Z,9.03
2019-03-17T10:23:34.264Z,9.03
2019-03-17T10:24:34.222Z,8.96
2019-03-17T10:25:34.195Z,8.93
2019-03-17T10:26:34.177Z,8.93
2019-03-17T10:27:34.149Z,8.75
2019-03-17T10:28:35.287Z,8.75
2019-03-17T10:29:34.199Z,8.66
2019-03-17T10:30:34.078Z,8.64
2019-03-17T10:31:34.061Z,8.59
2019-03-17T10:32:34.023Z,8.56
2019-03-17T10:33:33.997Z,8.42
2019-03-17T10:34:33.973Z,8.52
2019-03-17T10:35:33.951Z,8.39
2019-03-17T10:36:33.933Z,8.24
2019-03-17T10:37:33.899Z,8.26
2019-03-17T10:38:33.874Z,8.14
2019-03-17T10:39:33.863Z,8.21
2019-03-17T10:40:33.833Z,8.17
2019-03-17T10:41:33.802Z,8.20
2019-03-17T10:42:34.293Z,8.28
2019-03-17T10:43:33.758Z,8.21
2019-03-17T10:44:33.732Z,8.17
2019-03-17T10:45:33.696Z,8.28
2019-03-17T10:46:33.674Z,8.39
2019-03-17T10:47:33.656Z,8.31
2019-03-17T10:48:33.622Z,8.39
2019-03-17T10:49:33.595Z,8.24
2019-03-17T10:50:33.570Z,8.21
2019-03-17T10:51:33.547Z,8.17
2019-03-17T10:52:33.519Z,8.42
2019-03-17T10:53:33.990Z,8.79
2019-03-17T10:54:33.472Z,8.92
2019-03-17T10:55:33.452Z,8.89
2019-03-17T10:56:33.661Z,9.03
2019-03-17T10:57:33.395Z,9.21
2019-03-17T10:58:33.371Z,8.82
2019-03-17T10:59:33.352Z,8.79
2019-03-17T11:00:33.336Z,8.72
2019-03-17T11:01:33.297Z,8.89
2019-03-17T11:02:33.275Z,9.66
2019-03-17T11:03:33.251Z,10.00
2019-03-17T11:04:33.226Z,10.27
2019-03-17T11:05:33.243Z,10.33
2019-03-17T11:06:33.826Z,10.25
2019-03-17T11:07:33.167Z,10.03
2019-03-17T11:08:33.134Z,9.91
2019-03-17T11:09:33.110Z,10.10
2019-03-17T11:10:33.085Z,10.21
2019-03-17T11:11:33.065Z,10.61
2019-03-17T11:12:33.043Z,11.18
2019-03-17T11:13:33.034Z,10.86
2019-03-17T11:14:33.098Z,11.26
2019-03-17T11:15:32.978Z,11.37
2019-03-17T11:16:32.950Z,11.81
2019-03-17T11:17:32.930Z,11.99
2019-03-17T11:18:32.907Z,12.30
2019-03-17T11:19:32.883Z,12.15
2019-03-17T11:20:32.863Z,12.17
2019-03-17T11:21:32.843Z,12.37
2019-03-17T11:22:32.815Z,12.39
2019-03-17T11:23:32.798Z,12.57
2019-03-17T11:24:32.777Z,12.17
2019-03-17T11:25:32.765Z,11.78
2019-03-17T11:26:32.736Z,12.43
2019-03-17T11:27:32.724Z,12.25
2019-03-17T11:28:32.720Z,11.97
2019-03-17T11:29:32.673Z,11.38
2019-03-17T11:30:32.663Z,11.23
2019-03-17T11:31:32.635Z,10.87
2019-03-17T11:32:32.614Z,10.57
2019-03-17T11:33:32.592Z,10.39
2019-03-17T11:34:32.571Z,10.23
2019-03-17T11:35:32.551Z,10.12
2019-03-17T11:36:32.528Z,9.99
2019-03-17T11:37:32.507Z,10.00
2019-03-17T11:38:32.482Z,9.91
2019-03-17T11:39:37.766Z,9.82
2019-03-17T11:40:32.439Z,9.56
2019-03-17T11:41:32.432Z,9.47
2019-03-17T11:42:32.406Z,9.44
2019-03-17T11:43:32.459Z,9.37
2019-03-17T11:44:32.351Z,9.36
2019-03-17T11:45:32.332Z,9.44
2019-03-17T11:46:32.305Z,9.51
2019-03-17T11:47:32.283Z,9.42
2019-03-17T11:48:32.269Z,9.40
2019-03-17T11:49:32.240Z,9.42
2019-03-17T11:50:32.223Z,9.36
2019-03-17T11:51:32.198Z,9.40
2019-03-17T11:52:32.170Z,9.31
2019-03-17T11:53:32.145Z,9.31
2019-03-17T11:54:32.125Z,9.37
2019-03-17T11:55:32.149Z,9.44
2019-03-17T11:56:32.076Z,9.37
2019-03-17T11:57:32.056Z,9.37
2019-03-17T11:58:32.036Z,9.45
2019-03-17T11:59:32.002Z,9.37
2019-03-17T12:00:31.983Z,9.36
2019-03-17T12:01:31.958Z,9.40
2019-03-17T12:02:31.934Z,9.48
2019-03-17T12:03:31.932Z,9.34
2019-03-17T12:04:31.896Z,9.36
2019-03-17T12:05:31.890Z,9.45
2019-03-17T12:06:31.844Z,9.49
2019-03-17T12:07:31.823Z,9.58
2019-03-17T12:08:31.825Z,9.54
2019-03-17T12:09:31.774Z,9.72
2019-03-17T12:10:31.771Z,9.70
2019-03-17T12:11:33.333Z,9.52
2019-03-17T12:12:31.704Z,9.55
2019-03-17T12:13:31.681Z,9.51
2019-03-17T12:14:31.655Z,9.49
2019-03-17T12:15:31.635Z,10.17
2019-03-17T12:16:31.612Z,10.31
2019-03-17T12:17:32.343Z,10.28
2019-03-17T12:18:31.564Z,10.46
2019-03-17T12:19:32.843Z,10.21
2019-03-17T12:20:31.523Z,10.07
2019-03-17T12:21:31.499Z,10.25
2019-03-17T12:22:31.478Z,10.33
2019-03-17T12:23:31.452Z,10.61
2019-03-17T12:24:31.452Z,10.97
2019-03-17T12:25:31.409Z,11.23
2019-03-17T12:26:31.387Z,11.13
2019-03-17T12:27:31.359Z,11.22
2019-03-17T12:28:31.341Z,11.44
2019-03-17T12:29:31.317Z,11.55
2019-03-17T12:30:31.298Z,11.35
2019-03-17T12:31:31.272Z,10.98
2019-03-17T12:32:31.251Z,10.64
2019-03-17T12:33:31.227Z,10.41
2019-03-17T12:34:31.211Z,10.83
2019-03-17T12:35:31.199Z,10.83
2019-03-17T12:36:31.159Z,10.79
2019-03-17T12:37:31.148Z,10.79
2019-03-17T12:38:31.320Z,10.86
2019-03-17T12:39:31.139Z,10.95
2019-03-17T12:40:31.070Z,11.22
2019-03-17T12:41:31.051Z,11.45
2019-03-17T12:42:31.032Z,11.53
2019-03-17T12:43:31.009Z,11.88
2019-03-17T12:44:30.987Z,12.03
2019-03-17T12:45:30.961Z,11.85
2019-03-17T12:46:30.941Z,11.43
2019-03-17T12:47:30.919Z,11.81
2019-03-17T12:48:30.955Z,11.71
2019-03-17T12:49:31.274Z,11.60
2019-03-17T12:50:30.859Z,11.74
2019-03-17T12:51:30.834Z,11.77
2019-03-17T12:52:30.813Z,11.51
2019-03-17T12:53:30.791Z,11.67
2019-03-17T12:54:30.769Z,11.74
2019-03-17T12:55:30.750Z,11.74
2019-03-17T12:56:30.727Z,11.63
2019-03-17T12:57:30.714Z,11.76
2019-03-17T12:58:30.685Z,11.89
2019-03-17T12:59:30.667Z,11.95
2019-03-17T13:00:30.768Z,11.99
2019-03-17T13:01:30.687Z,11.99
2019-03-17T13:02:30.605Z,11.96
2019-03-17T13:03:30.580Z,11.85
2019-03-17T13:04:30.559Z,11.88
2019-03-17T13:05:30.535Z,12.12